createdAt,value
2018-12-09T00:00:24.579Z,6.70
2018-12-09T00:02:54.088Z,6.70
2018-12-09T00:05:22.363Z,6.60
2018-12-09T00:07:50.190Z,6.60
2018-12-09T00:10:17.997Z,6.60
2018-12-09T00:12:45.867Z,6.60
2018-12-09T00:15:13.940Z,6.60
2018-12-09T00:17:41.810Z,6.60
2018-12-09T00:20:11.265Z,6.60
2018-12-09T00:22:39.386Z,6.50
2018-12-09T00:25:07.055Z,6.60
2018-12-09T00:27:34.919Z,6.60
2018-12-09T00:30:02.850Z,6.60
2018-12-09T00:32:30.582Z,6.50
2018-12-09T00:34:58.512Z,6.50
2018-12-09T00:37:26.324Z,6.50
2018-12-09T00:39:54.260Z,6.50
2018-12-09T00:42:22.132Z,6.50
2018-12-09T00:44:50.537Z,6.50
2018-12-09T00:47:18.272Z,6.60
2018-12-09T00:49:46.144Z,6.60
2018-12-09T00:52:14.011Z,6.60
2018-12-09T00:54:41.881Z,6.60
2018-12-09T00:57:10.174Z,6.70
2018-12-09T00:59:38.126Z,6.70
2018-12-09T01:02:07.877Z,6.70
2018-12-09T01:04:35.833Z,6.80
2018-12-09T01:07:04.703Z,6.80
2018-12-09T01:09:32.441Z,6.90
2018-12-09T01:12:00.950Z,6.90
2018-12-09T01:14:28.820Z,6.90
2018-12-09T01:16:58.111Z,7.00
2018-12-09T01:19:25.990Z,7.00
2018-12-09T01:21:54.171Z,7.00
2018-12-09T01:24:23.266Z,7.10
2018-12-09T01:26:50.946Z,7.10
2018-12-09T01:29:18.730Z,7.10
2018-12-09T01:31:46.465Z,7.20
2018-12-09T01:34:14.848Z,7.20
2018-12-09T01:36:43.132Z,7.30
2018-12-09T01:39:11.828Z,7.30
2018-12-09T01:41:39.691Z,7.30
2018-12-09T01:44:07.364Z,7.40
2018-12-09T01:46:35.020Z,7.50
2018-12-09T01:49:02.978Z,7.50
2018-12-09T01:51:30.748Z,7.70
2018-12-09T01:54:08.154Z,7.70
2018-12-09T01:56:36.207Z,7.70
2018-12-09T01:59:04.489Z,7.70
2018-12-09T02:01:32.253Z,7.70
2018-12-09T02:03:59.924Z,7.70
2018-12-09T02:06:27.886Z,7.80
2018-12-09T02:08:55.665Z,7.90
2018-12-09T02:11:23.623Z,8.00
2018-12-09T02:13:51.636Z,8.20
2018-12-09T02:16:20.900Z,8.30
2018-12-09T02:18:57.266Z,8.30
2018-12-09T02:21:25.183Z,8.30
2018-12-09T02:23:52.899Z,8.40
2018-12-09T02:26:20.999Z,8.50
2018-12-09T02:28:49.248Z,8.60
2018-12-09T02:31:17.322Z,8.60
2018-12-09T02:33:45.215Z,8.50
2018-12-09T02:36:12.956Z,8.60
2018-12-09T02:38:40.728Z,8.70
2018-12-09T02:41:08.591Z,8.80
2018-12-09T02:43:36.288Z,8.70
2018-12-09T02:46:04.234Z,8.60
2018-12-09T02:48:32.230Z,8.80
2018-12-09T02:51:00.095Z,8.70
2018-12-09T02:53:27.832Z,8.60
2018-12-09T02:55:55.904Z,8.70
2018-12-09T02:58:23.598Z,8.70
2018-12-09T03:00:51.540Z,8.60
2018-12-09T03:03:19.722Z,8.60
2018-12-09T03:05:47.789Z,8.60
2018-12-09T03:08:15.588Z,8.60
2018-12-09T03:10:43.534Z,8.60
2018-12-09T03:13:11.701Z,8.60
2018-12-09T03:15:39.485Z,8.60
2018-12-09T03:18:07.267Z,8.60
2018-12-09T03:20:34.998Z,8.70
2018-12-09T03:23:02.696Z,8.70
2018-12-09T03:25:30.429Z,8.70
2018-12-09T03:27:58.320Z,8.70
2018-12-09T03:30:26.269Z,8.80
2018-12-09T03:32:54.140Z,8.80
2018-12-09T03:35:22.004Z,8.60
2018-12-09T03:37:49.770Z,8.60
2018-12-09T03:40:17.883Z,8.50
2018-12-09T03:42:45.814Z,8.50
2018-12-09T03:45:13.493Z,8.40
2018-12-09T03:47:41.906Z,8.40
2018-12-09T03:50:10.062Z,8.40
2018-12-09T03:52:37.901Z,8.20
2018-12-09T03:55:06.179Z,8.10
2018-12-09T03:57:33.787Z,7.80
2018-12-09T04:00:01.717Z,7.50
2018-12-09T04:02:29.918Z,7.20
2018-12-09T04:04:57.652Z,7.10
2018-12-09T04:07:25.416Z,6.90
2018-12-09T04:09:53.183Z,6.80
2018-12-09T04:12:20.949Z,6.80
2018-12-09T04:14:49.125Z,6.60
2018-12-09T04:17:17.095Z,6.40
2018-12-09T04:19:45.478Z,6.40
2018-12-09T04:22:13.447Z,6.30
2018-12-09T04:24:41.317Z,6.30
2018-12-09T04:27:09.121Z,6.30
2018-12-09T04:29:36.879Z,6.30
2018-12-09T04:32:04.825Z,6.40
2018-12-09T04:34:32.525Z,6.50
2018-12-09T04:37:00.136Z,6.40
2018-12-09T04:39:27.944Z,6.30
2018-12-09T04:41:55.675Z,6.20
2018-12-09T04:44:23.467Z,6.20
2018-12-09T04:46:51.169Z,6.20
2018-12-09T04:49:18.996Z,6.30
2018-12-09T04:51:54.320Z,6.30
2018-12-09T04:54:22.007Z,6.30
2018-12-09T04:56:49.833Z,6.30
2018-12-09T04:59:19.618Z,6.40
2018-12-09T05:01:47.533Z,6.30
2018-12-09T05:04:15.404Z,6.30
2018-12-09T05:06:43.270Z,6.30
2018-12-09T05:09:10.885Z,6.30
2018-12-09T05:11:39.005Z,6.20
2018-12-09T05:14:06.988Z,6.10
2018-12-09T05:16:34.745Z,6.10
2018-12-09T05:19:02.454Z,6.30
2018-12-09T05:21:30.084Z,6.30
2018-12-09T05:23:57.967Z,6.60
2018-12-09T05:26:25.910Z,6.70
2018-12-09T05:28:53.680Z,6.90
2018-12-09T05:31:21.573Z,6.80
2018-12-09T05:33:49.430Z,6.80
2018-12-09T05:36:17.251Z,6.80
2018-12-09T05:38:45.968Z,7.00
2018-12-09T05:41:14.245Z,7.10
2018-12-09T05:43:42.051Z,7.00
2018-12-09T05:46:09.882Z,6.90
2018-12-09T05:48:37.644Z,6.80
2018-12-09T05:51:05.456Z,6.80
2018-12-09T05:53:33.082Z,6.70
2018-12-09T05:56:00.960Z,6.80
2018-12-09T05:58:28.725Z,6.90
2018-12-09T06:00:56.576Z,6.80
2018-12-09T06:03:24.359Z,6.80
2018-12-09T06:05:52.247Z,6.90
2018-12-09T06:08:20.121Z,6.80
2018-12-09T06:10:48.465Z,6.80
2018-12-09T06:13:16.227Z,6.80
2018-12-09T06:15:44.241Z,6.80
2018-12-09T06:18:12.076Z,6.80
2018-12-09T06:20:39.841Z,6.70
2018-12-09T06:23:07.528Z,6.90
2018-12-09T06:25:36.085Z,7.00
2018-12-09T06:28:03.811Z,7.00
2018-12-09T06:30:31.518Z,6.90
2018-12-09T06:32:59.280Z,7.10
2018-12-09T06:35:27.150Z,7.20
2018-12-09T06:37:55.164Z,7.40
2018-12-09T06:40:22.992Z,7.30
2018-12-09T06:42:50.860Z,7.20
2018-12-09T06:45:18.544Z,7.00
2018-12-09T06:47:46.491Z,6.90
2018-12-09T06:50:14.566Z,6.80
2018-12-09T06:52:42.843Z,6.80
2018-12-09T06:55:10.609Z,6.90
2018-12-09T06:57:38.374Z,6.90
2018-12-09T07:00:06.563Z,6.80
2018-12-09T07:02:34.239Z,6.90
2018-12-09T07:05:01.933Z,6.80
2018-12-09T07:10:02.531Z,6.60
2018-12-09T07:12:30.398Z,6.60
2018-12-09T07:14:58.266Z,6.60
2018-12-09T07:17:26.951Z,6.60
2018-12-09T07:19:55.025Z,6.80
2018-12-09T07:22:22.988Z,6.80
2018-12-09T07:24:50.973Z,6.70
2018-12-09T07:27:19.045Z,6.70
2018-12-09T07:29:47.627Z,6.60
2018-12-09T07:32:15.508Z,6.60
2018-12-09T07:34:43.566Z,6.40
2018-12-09T07:37:11.333Z,6.40
2018-12-09T07:39:39.202Z,6.40
2018-12-09T07:42:06.968Z,6.50
2018-12-09T07:44:34.835Z,6.70
2018-12-09T07:47:02.604Z,6.70
2018-12-09T07:49:30.472Z,6.80
2018-12-09T07:51:58.337Z,6.80
2018-12-09T07:54:26.206Z,6.80
2018-12-09T07:56:54.006Z,6.80
2018-12-09T07:59:21.740Z,6.80
2018-12-09T08:01:49.608Z,6.90
2018-12-09T08:04:17.480Z,6.90
2018-12-09T08:06:45.349Z,7.00
2018-12-09T08:09:13.420Z,7.00
2018-12-09T08:11:43.851Z,7.10
2018-12-09T08:14:11.634Z,7.10
2018-12-09T08:16:39.383Z,7.10
2018-12-09T08:19:07.225Z,7.20
2018-12-09T08:21:34.987Z,7.20
2018-12-09T08:24:02.785Z,7.30
2018-12-09T08:26:30.443Z,7.30
2018-12-09T08:28:58.863Z,7.40
2018-12-09T08:31:26.509Z,7.40
2018-12-09T08:33:54.255Z,7.40
2018-12-09T08:36:22.121Z,7.40
2018-12-09T08:38:49.990Z,7.40
2018-12-09T08:41:17.859Z,7.40
2018-12-09T08:43:45.731Z,7.40
2018-12-09T08:46:13.493Z,7.50
2018-12-09T08:48:41.278Z,7.50
2018-12-09T08:51:09.027Z,7.60
2018-12-09T08:53:37.202Z,7.70
2018-12-09T08:56:05.345Z,7.70
2018-12-09T08:58:33.048Z,7.60
2018-12-09T09:01:01.015Z,7.70
2018-12-09T09:03:28.776Z,7.70
2018-12-09T09:05:56.563Z,7.70
2018-12-09T09:08:24.312Z,7.70
2018-12-09T09:10:52.182Z,7.70
2018-12-09T09:13:20.154Z,7.70
2018-12-09T09:15:49.043Z,7.70
2018-12-09T09:18:16.996Z,7.70
2018-12-09T09:20:45.392Z,7.60
2018-12-09T09:23:13.568Z,7.60
2018-12-09T09:25:41.357Z,7.70
2018-12-09T09:28:10.149Z,7.60
2018-12-09T09:30:37.891Z,7.50
2018-12-09T09:33:05.686Z,7.50
2018-12-09T09:35:33.630Z,7.50
2018-12-09T09:38:01.396Z,7.50
2018-12-09T09:40:29.345Z,7.50
2018-12-09T09:42:57.849Z,7.60
2018-12-09T09:45:26.638Z,7.50
2018-12-09T09:47:54.711Z,7.50
2018-12-09T09:50:22.845Z,7.50
2018-12-09T09:52:51.937Z,7.50
2018-12-09T09:55:19.818Z,7.60
2018-12-09T09:57:48.131Z,7.60
2018-12-09T10:00:16.128Z,7.60
2018-12-09T10:02:43.779Z,7.60
2018-12-09T10:05:11.533Z,7.70
2018-12-09T10:07:39.399Z,7.70
2018-12-09T10:10:07.473Z,7.70
2018-12-09T10:12:40.485Z,7.70
2018-12-09T10:15:09.821Z,7.70
2018-12-09T10:17:38.042Z,7.70
2018-12-09T10:20:06.377Z,7.60
2018-12-09T10:22:34.187Z,7.60
2018-12-09T10:25:01.968Z,7.60
2018-12-09T10:27:30.563Z,7.70
2018-12-09T10:29:58.866Z,7.60
2018-12-09T10:32:26.643Z,7.60
2018-12-09T10:34:55.272Z,7.60
2018-12-09T10:37:23.899Z,7.60
2018-12-09T10:39:51.725Z,7.60
2018-12-09T10:42:19.413Z,7.50
2018-12-09T10:44:47.726Z,7.50
2018-12-09T10:47:15.740Z,7.60
2018-12-09T10:49:43.607Z,7.60
2018-12-09T10:52:11.405Z,7.50
2018-12-09T10:54:39.445Z,7.60
2018-12-09T10:57:07.424Z,7.60
2018-12-09T10:59:35.286Z,7.50
2018-12-09T11:02:08.697Z,7.50
2018-12-09T11:04:36.406Z,7.50
2018-12-09T11:07:04.099Z,7.60
2018-12-09T11:09:31.881Z,7.60
2018-12-09T11:11:59.850Z,7.50
2018-12-09T11:14:27.534Z,7.50
2018-12-09T11:16:55.692Z,7.60
2018-12-09T11:19:23.661Z,7.60
2018-12-09T11:21:51.939Z,7.70
2018-12-09T11:24:20.014Z,7.70
2018-12-09T11:26:47.833Z,7.70
2018-12-09T11:29:15.750Z,7.70
2018-12-09T11:31:43.513Z,7.70
2018-12-09T11:34:11.997Z,7.70
2018-12-09T11:36:40.717Z,7.80
2018-12-09T11:39:09.424Z,7.70
2018-12-09T11:41:37.239Z,7.70
2018-12-09T11:44:05.927Z,7.70
2018-12-09T11:46:34.460Z,7.70
2018-12-09T11:49:02.285Z,7.70
2018-12-09T11:51:30.092Z,7.70
2018-12-09T11:53:57.915Z,7.70
2018-12-09T11:56:25.987Z,7.70
2018-12-09T11:58:54.060Z,7.70
2018-12-09T12:01:21.930Z,7.60
2018-12-09T12:03:50.209Z,7.60
2018-12-09T12:06:18.894Z,7.50
2018-12-09T12:08:47.683Z,7.40
2018-12-09T12:11:17.397Z,7.30
2018-12-09T12:13:45.670Z,7.30
2018-12-09T12:16:13.443Z,7.30
2018-12-09T12:18:41.357Z,7.30
2018-12-09T12:21:09.390Z,7.30
2018-12-09T12:23:37.568Z,7.30
2018-12-09T12:26:07.314Z,7.40
2018-12-09T12:28:35.241Z,7.30
2018-12-09T12:31:03.047Z,7.20
2018-12-09T12:33:30.875Z,7.20
2018-12-09T12:35:58.643Z,7.20
2018-12-09T12:38:26.512Z,7.20
2018-12-09T12:40:54.485Z,7.20
2018-12-09T12:43:22.960Z,7.20
2018-12-09T12:45:50.830Z,7.20
2018-12-09T12:48:18.696Z,7.20
2018-12-09T12:50:46.772Z,7.20
2018-12-09T12:53:14.743Z,7.20
2018-12-09T12:55:42.815Z,7.30
2018-12-09T12:58:11.301Z,7.30
2018-12-09T13:00:41.374Z,7.30
2018-12-09T13:03:09.290Z,7.30
2018-12-09T13:05:37.911Z,7.30
2018-12-09T13:08:20.973Z,7.30
2018-12-09T13:11:00.088Z,7.30
2018-12-09T13:13:28.257Z,7.20
2018-12-09T13:15:56.486Z,7.20
2018-12-09T13:18:24.766Z,7.20
2018-12-09T13:20:53.046Z,7.20
2018-12-09T13:23:22.652Z,7.10
2018-12-09T13:25:50.520Z,7.00
2018-12-09T13:28:20.126Z,7.00
2018-12-09T13:30:47.894Z,6.90
2018-12-09T13:33:16.170Z,7.00
2018-12-09T13:35:46.367Z,6.90
2018-12-09T13:38:14.365Z,6.90
2018-12-09T13:40:42.591Z,6.90
2018-12-09T13:43:10.642Z,6.90
2018-12-09T13:45:38.490Z,6.90
2018-12-09T13:48:06.292Z,6.90
2018-12-09T13:50:34.046Z,6.90
2018-12-09T13:53:02.087Z,7.00
2018-12-09T13:55:30.050Z,7.00
2018-12-09T13:57:57.963Z,6.90
2018-12-09T14:00:25.693Z,6.90
2018-12-09T14:02:53.462Z,7.00
2018-12-09T14:05:21.437Z,6.90
2018-12-09T14:07:49.503Z,6.90
2018-12-09T14:10:17.575Z,6.90
2018-12-09T14:12:46.476Z,6.80
2018-12-09T14:15:14.538Z,6.90
2018-12-09T14:17:44.044Z,6.90
2018-12-09T14:20:12.022Z,6.90
2018-12-09T14:22:39.782Z,6.80
2018-12-09T14:25:08.794Z,6.90
2018-12-09T14:27:36.698Z,6.70
2018-12-09T14:30:06.152Z,6.80
2018-12-09T14:32:34.020Z,6.80
2018-12-09T14:35:01.893Z,6.80
2018-12-09T14:37:30.065Z,6.80
2018-12-09T14:39:57.944Z,6.70
2018-12-09T14:42:25.800Z,6.70
2018-12-09T14:44:55.972Z,6.70
2018-12-09T14:47:23.994Z,6.70
2018-12-09T14:49:51.863Z,6.80
2018-12-09T14:52:19.898Z,6.80
2018-12-09T14:54:48.046Z,6.90
2018-12-09T14:57:15.982Z,6.90
2018-12-09T14:59:44.160Z,6.90
2018-12-09T15:02:13.152Z,7.00
2018-12-09T15:04:45.423Z,7.00
2018-12-09T15:07:13.291Z,7.00
2018-12-09T15:09:41.159Z,7.10
2018-12-09T15:12:10.431Z,7.10
2018-12-09T15:14:39.398Z,7.10
2018-12-09T15:17:07.734Z,7.10
2018-12-09T15:19:35.501Z,7.20
2018-12-09T15:22:03.367Z,7.20
2018-12-09T15:24:31.112Z,7.20
2018-12-09T15:26:59.562Z,7.20
2018-12-09T15:29:30.052Z,7.30
2018-12-09T15:31:59.551Z,7.30
2018-12-09T15:34:27.422Z,7.20
2018-12-09T15:36:56.420Z,7.20
2018-12-09T15:39:24.245Z,7.20
2018-12-09T15:41:53.075Z,7.30
2018-12-09T15:44:21.374Z,7.20
2018-12-09T15:46:50.703Z,7.10
2018-12-09T15:49:18.807Z,7.20
2018-12-09T15:51:48.307Z,7.10
2018-12-09T15:54:16.784Z,7.20
2018-12-09T15:56:46.616Z,7.20
2018-12-09T15:59:15.432Z,7.10
2018-12-09T16:01:43.717Z,7.10
2018-12-09T16:04:11.731Z,7.00
2018-12-09T16:06:40.095Z,7.00
2018-12-09T16:09:08.133Z,7.00
2018-12-09T16:11:39.854Z,6.90
2018-12-09T16:14:13.453Z,6.80
2018-12-09T16:16:54.677Z,6.80
2018-12-09T16:24:32.371Z,6.70
2018-12-09T16:27:01.354Z,6.50
2018-12-09T16:29:31.852Z,6.50
2018-12-09T16:32:04.101Z,6.40
2018-12-09T16:34:33.046Z,6.30
2018-12-09T16:37:02.476Z,6.10
2018-12-09T16:39:31.762Z,6.10
2018-12-09T16:42:01.386Z,6.10
2018-12-09T16:44:29.796Z,6.10
2018-12-09T16:47:00.321Z,6.00
2018-12-09T16:52:01.373Z,6.10
2018-12-09T16:54:29.460Z,6.20
2018-12-09T16:56:58.152Z,6.10
2018-12-09T16:59:29.355Z,6.20
2018-12-09T17:02:08.389Z,6.20
2018-12-09T17:04:36.805Z,6.20
2018-12-09T17:09:43.369Z,6.30
2018-12-09T17:12:13.799Z,6.30
2018-12-09T17:14:45.997Z,6.30
2018-12-09T17:17:14.181Z,6.30
2018-12-09T17:19:44.944Z,6.30
2018-12-09T17:22:18.613Z,6.30
2018-12-09T17:27:34.893Z,6.30
2018-12-09T17:30:04.438Z,6.40
2018-12-09T17:35:17.956Z,6.40
2018-12-09T17:37:48.450Z,6.30
2018-12-09T17:40:16.919Z,6.40
2018-12-09T17:42:47.054Z,6.30
2018-12-09T17:45:16.241Z,6.20
2018-12-09T17:47:47.678Z,6.30
2018-12-09T17:50:18.977Z,6.20
2018-12-09T17:52:51.420Z,6.10
2018-12-09T17:55:20.286Z,6.10
2018-12-09T17:57:50.994Z,6.10
2018-12-09T18:00:21.358Z,6.10
2018-12-09T18:02:50.562Z,6.10
2018-12-09T18:05:22.383Z,6.10
2018-12-09T18:07:53.535Z,6.10
2018-12-09T18:10:23.435Z,6.00
2018-12-09T18:15:24.747Z,5.90
2018-12-09T18:17:54.921Z,5.90
2018-12-09T18:20:27.136Z,6.00
2018-12-09T18:22:59.012Z,6.00
2018-12-09T18:25:28.615Z,6.00
2018-12-09T18:27:57.305Z,6.10
2018-12-09T18:33:04.712Z,6.10
2018-12-09T18:35:33.651Z,6.10
2018-12-09T18:38:02.479Z,6.00
2018-12-09T18:40:38.264Z,6.00
2018-12-09T18:43:06.110Z,6.10
2018-12-09T18:45:34.845Z,6.10
2018-12-09T18:48:04.613Z,6.00
2018-12-09T18:50:36.149Z,6.00
2018-12-09T18:53:10.342Z,6.10
2018-12-09T18:55:42.047Z,6.10
2018-12-09T18:58:12.447Z,6.00
2018-12-09T19:00:48.919Z,5.90
2018-12-09T19:03:19.139Z,5.90
2018-12-09T19:05:48.601Z,6.00
2018-12-09T19:08:17.714Z,5.90
2018-12-09T19:10:46.156Z,5.90
2018-12-09T19:13:14.184Z,5.90
2018-12-09T19:15:42.199Z,5.90
2018-12-09T19:18:10.240Z,5.80
2018-12-09T19:20:38.044Z,5.80
2018-12-09T19:23:06.080Z,5.70
2018-12-09T19:25:34.701Z,5.70
2018-12-09T19:28:02.976Z,5.60
2018-12-09T19:30:30.951Z,5.60
2018-12-09T19:32:59.236Z,5.60
2018-12-09T19:35:27.485Z,5.60
2018-12-09T19:37:55.373Z,5.60
2018-12-09T19:40:23.454Z,5.50
2018-12-09T19:42:51.831Z,5.60
2018-12-09T19:45:20.514Z,5.70
2018-12-09T19:47:48.487Z,5.70
2018-12-09T19:50:16.562Z,5.70
2018-12-09T19:52:44.427Z,5.70
2018-12-09T19:55:13.327Z,5.60
2018-12-09T19:57:41.186Z,5.70
2018-12-09T20:00:08.945Z,5.80
2018-12-09T20:02:37.166Z,5.80
2018-12-09T20:05:06.777Z,5.70
2018-12-09T20:10:48.630Z,5.70
2018-12-09T20:13:16.741Z,5.70
2018-12-09T20:15:44.740Z,5.70
2018-12-09T20:18:12.774Z,5.70
2018-12-09T20:20:41.056Z,5.80
2018-12-09T20:23:09.127Z,5.70
2018-12-09T20:25:37.206Z,5.70
2018-12-09T20:28:05.070Z,5.70
2018-12-09T20:30:33.002Z,5.80
2018-12-09T20:33:01.011Z,5.70
2018-12-09T20:35:29.433Z,5.70
2018-12-09T20:37:57.259Z,5.70
2018-12-09T20:40:25.230Z,5.80
2018-12-09T20:42:54.355Z,5.70
2018-12-09T20:45:22.195Z,5.80
2018-12-09T20:47:50.425Z,5.80
2018-12-09T20:50:18.659Z,5.80
2018-12-09T20:52:46.621Z,5.80
2018-12-09T20:55:14.597Z,5.90
2018-12-09T20:57:42.465Z,5.90
2018-12-09T21:00:10.640Z,5.80
2018-12-09T21:02:38.504Z,5.80
2018-12-09T21:05:06.783Z,5.80
2018-12-09T21:07:34.899Z,5.80
2018-12-09T21:10:03.040Z,5.90
2018-12-09T21:12:31.049Z,6.00
2018-12-09T21:14:58.890Z,6.00
2018-12-09T21:17:26.735Z,6.00
2018-12-09T21:19:54.606Z,6.00
2018-12-09T21:22:22.473Z,5.80
2018-12-09T21:24:50.344Z,5.90
2018-12-09T21:27:18.314Z,5.90
2018-12-09T21:29:46.386Z,5.90
2018-12-09T21:32:14.257Z,5.90
2018-12-09T21:34:42.740Z,5.90
2018-12-09T21:37:10.611Z,5.90
2018-12-09T21:39:38.475Z,5.80
2018-12-09T21:42:06.344Z,5.90
2018-12-09T21:44:34.060Z,5.80
2018-12-09T21:47:01.977Z,5.80
2018-12-09T21:49:29.847Z,5.90
2018-12-09T21:51:58.093Z,5.90
2018-12-09T21:54:25.994Z,5.90
2018-12-09T21:56:53.867Z,5.90
2018-12-09T21:59:21.746Z,5.90
2018-12-09T22:01:49.701Z,5.90
2018-12-09T22:04:17.569Z,5.80
2018-12-09T22:06:45.847Z,5.80
2018-12-09T22:09:13.927Z,5.70
2018-12-09T22:11:41.791Z,5.70
2018-12-09T22:14:09.661Z,5.70
2018-12-09T22:16:37.424Z,5.70
2018-12-09T22:19:05.293Z,5.70
2018-12-09T22:21:33.020Z,5.80
2018-12-09T22:24:00.639Z,5.80
2018-12-09T22:26:28.488Z,5.80
2018-12-09T22:28:56.270Z,5.80
2018-12-09T22:31:24.229Z,5.90
2018-12-09T22:33:53.115Z,5.80
2018-12-09T22:36:21.069Z,5.90
2018-12-09T22:38:48.956Z,5.80
2018-12-09T22:41:16.925Z,5.80
2018-12-09T22:43:44.692Z,5.70
2018-12-09T22:46:12.474Z,5.70
2018-12-09T22:48:40.638Z,5.70
2018-12-09T22:51:08.457Z,5.60
2018-12-09T22:53:37.196Z,5.70
2018-12-09T22:56:05.293Z,5.80
2018-12-09T22:58:32.923Z,5.70
2018-12-09T23:01:06.587Z,5.60
2018-12-09T23:03:34.401Z,5.60
2018-12-09T23:06:02.113Z,5.70
2018-12-09T23:08:29.937Z,5.70
2018-12-09T23:10:57.801Z,5.90
2018-12-09T23:13:25.669Z,5.90
2018-12-09T23:15:53.649Z,5.90
2018-12-09T23:18:22.736Z,5.90
2018-12-09T23:20:50.610Z,5.90
2018-12-09T23:23:18.370Z,5.90
2018-12-09T23:25:46.163Z,5.80
2018-12-09T23:28:13.929Z,5.80
2018-12-09T23:30:41.876Z,5.90
2018-12-09T23:33:09.679Z,5.70
2018-12-09T23:35:37.407Z,5.60
2018-12-09T23:38:06.093Z,5.50
2018-12-09T23:40:34.066Z,5.30
2018-12-09T23:43:02.134Z,5.20
2018-12-09T23:45:31.041Z,5.20
2018-12-09T23:47:58.821Z,5.10
2018-12-09T23:50:26.667Z,5.10
2018-12-09T23:52:54.428Z,5.10
2018-12-09T23:55:22.111Z,5.00
2018-12-09T23:57:49.860Z,5.00
